sensor_id;sensor_type;location;lat;lon;timestamp;P1;durP1;ratioP1;P2;durP2;ratioP2
22332;SDS011;11334;36.986;-121.936;2023-06-14T00:02:12;1.10;;;0.70;;
22332;SDS011;11334;36.986;-121.936;2023-06-14T00:04:39;0.90;;;0.60;;
22332;SDS011;11334;36.986;-121.936;2023-06-14T00:07:07;1.33;;;0.90;;
22332;SDS011;11334;36.986;-121.936;2023-06-14T00:09:34;1.65;;;0.70;;
22332;SDS011;11334;36.986;-121.936;2023-06-14T00:12:00;1.48;;;0.93;;
22332;SDS011;11334;36.986;-121.936;2023-06-14T00:14:27;1.38;;;0.80;;
22332;SDS011;11334;36.986;-121.936;2023-06-14T00:16:53;2.92;;;0.90;;
22332;SDS011;11334;36.986;-121.936;2023-06-14T00:19:24;2.45;;;0.98;;
22332;SDS011;11334;36.986;-121.936;2023-06-14T00:21:51;3.67;;;0.80;;
22332;SDS011;11334;36.986;-121.936;2023-06-14T00:24:20;1.02;;;0.82;;
22332;SDS011;11334;36.986;-121.936;2023-06-14T00:26:46;1.02;;;0.90;;
22332;SDS011;11334;36.986;-121.936;2023-06-14T00:29:13;0.80;;;0.80;;
22332;SDS011;11334;36.986;-121.936;2023-06-14T00:31:39;1.38;;;0.68;;
22332;SDS011;11334;36.986;-121.936;2023-06-14T00:34:05;1.10;;;0.70;;
22332;SDS011;11334;36.986;-121.936;2023-06-14T00:36:31;6.80;;;2.10;;
22332;SDS011;11334;36.986;-121.936;2023-06-14T00:38:57;1.45;;;1.00;;
22332;SDS011;11334;36.986;-121.936;2023-06-14T00:41:24;2.08;;;1.05;;
22332;SDS011;11334;36.986;-121.936;2023-06-14T00:43:50;1.60;;;1.00;;
22332;SDS011;11334;36.986;-121.936;2023-06-14T00:46:17;2.15;;;0.68;;
22332;SDS011;11334;36.986;-121.936;2023-06-14T00:48:44;2.13;;;0.90;;
22332;SDS011;11334;36.986;-121.936;2023-06-14T00:51:11;0.82;;;0.73;;
22332;SDS011;11334;36.986;-121.936;2023-06-14T00:53:37;0.70;;;0.70;;
22332;SDS011;11334;36.986;-121.936;2023-06-14T00:56:05;0.73;;;0.68;;
22332;SDS011;11334;36.986;-121.936;2023-06-14T00:58:32;0.80;;;0.73;;
22332;SDS011;11334;36.986;-121.936;2023-06-14T01:00:58;1.52;;;0.80;;
22332;SDS011;11334;36.986;-121.936;2023-06-14T01:03:24;0.88;;;0.68;;
22332;SDS011;11334;36.986;-121.936;2023-06-14T01:05:52;1.02;;;1.00;;
22332;SDS011;11334;36.986;-121.936;2023-06-14T01:11:16;1.75;;;1.30;;
22332;SDS011;11334;36.986;-121.936;2023-06-14T01:13:50;1.08;;;0.98;;
22332;SDS011;11334;36.986;-121.936;2023-06-14T01:16:19;1.00;;;0.98;;
22332;SDS011;11334;36.986;-121.936;2023-06-14T01:18:45;1.33;;;1.00;;
22332;SDS011;11334;36.986;-121.936;2023-06-14T01:21:22;1.38;;;1.15;;
22332;SDS011;11334;36.986;-121.936;2023-06-14T01:23:50;2.00;;;1.60;;
22332;SDS011;11334;36.986;-121.936;2023-06-14T01:26:21;1.30;;;0.82;;
22332;SDS011;11334;36.986;-121.936;2023-06-14T01:28:48;1.73;;;0.70;;
22332;SDS011;11334;36.986;-121.936;2023-06-14T01:31:17;1.15;;;1.00;;
22332;SDS011;11334;36.986;-121.936;2023-06-14T01:33:47;0.80;;;0.80;;
22332;SDS011;11334;36.986;-121.936;2023-06-14T01:36:16;1.85;;;0.88;;
22332;SDS011;11334;36.986;-121.936;2023-06-14T01:38:45;1.33;;;1.00;;
22332;SDS011;11334;36.986;-121.936;2023-06-14T01:41:15;1.15;;;0.80;;
22332;SDS011;11334;36.986;-121.936;2023-06-14T01:43:44;1.75;;;0.90;;
22332;SDS011;11334;36.986;-121.936;2023-06-14T01:46:13;2.22;;;1.00;;
22332;SDS011;11334;36.986;-121.936;2023-06-14T01:48:41;2.33;;;1.00;;
22332;SDS011;11334;36.986;-121.936;2023-06-14T01:51:08;2.00;;;1.10;;
22332;SDS011;11334;36.986;-121.936;2023-06-14T01:53:35;1.67;;;1.10;;
22332;SDS011;11334;36.986;-121.936;2023-06-14T01:56:02;1.92;;;0.68;;
22332;SDS011;11334;36.986;-121.936;2023-06-14T01:58:28;1.60;;;0.88;;
22332;SDS011;11334;36.986;-121.936;2023-06-14T02:00:56;1.10;;;0.80;;
22332;SDS011;11334;36.986;-121.936;2023-06-14T02:03:23;1.17;;;0.90;;
22332;SDS011;11334;36.986;-121.936;2023-06-14T02:05:50;1.67;;;1.00;;
22332;SDS011;11334;36.986;-121.936;2023-06-14T02:08:17;1.35;;;0.63;;
22332;SDS011;11334;36.986;-121.936;2023-06-14T02:10:43;3.10;;;0.70;;
22332;SDS011;11334;36.986;-121.936;2023-06-14T02:13:10;1.52;;;0.73;;
22332;SDS011;11334;36.986;-121.936;2023-06-14T02:15:37;0.55;;;0.50;;
22332;SDS011;11334;36.986;-121.936;2023-06-14T02:18:03;1.02;;;0.70;;
22332;SDS011;11334;36.986;-121.936;2023-06-14T02:20:30;1.48;;;0.70;;
22332;SDS011;11334;36.986;-121.936;2023-06-14T02:22:57;2.00;;;0.90;;
22332;SDS011;11334;36.986;-121.936;2023-06-14T02:25:23;3.17;;;0.65;;
22332;SDS011;11334;36.986;-121.936;2023-06-14T02:27:53;2.08;;;0.73;;
22332;SDS011;11334;36.986;-121.936;2023-06-14T02:30:21;0.80;;;0.80;;
22332;SDS011;11334;36.986;-121.936;2023-06-14T02:32:49;1.30;;;0.82;;
22332;SDS011;11334;36.986;-121.936;2023-06-14T02:35:16;2.80;;;1.27;;
22332;SDS011;11334;36.986;-121.936;2023-06-14T02:37:43;2.33;;;1.20;;
22332;SDS011;11334;36.986;-121.936;2023-06-14T02:40:09;2.15;;;1.48;;
22332;SDS011;11334;36.986;-121.936;2023-06-14T02:42:36;2.70;;;0.70;;
22332;SDS011;11334;36.986;-121.936;2023-06-14T02:45:02;0.73;;;0.70;;
22332;SDS011;11334;36.986;-121.936;2023-06-14T02:47:29;1.00;;;0.68;;
22332;SDS011;11334;36.986;-121.936;2023-06-14T02:49:56;1.08;;;0.80;;
22332;SDS011;11334;36.986;-121.936;2023-06-14T02:52:22;0.88;;;0.88;;
22332;SDS011;11334;36.986;-121.936;2023-06-14T02:54:50;1.17;;;1.08;;
22332;SDS011;11334;36.986;-121.936;2023-06-14T02:57:17;1.33;;;0.73;;
22332;SDS011;11334;36.986;-121.936;2023-06-14T02:59:43;1.05;;;0.80;;
22332;SDS011;11334;36.986;-121.936;2023-06-14T03:02:09;0.70;;;0.70;;
22332;SDS011;11334;36.986;-121.936;2023-06-14T03:04:35;3.45;;;0.88;;
22332;SDS011;11334;36.986;-121.936;2023-06-14T03:07:06;1.67;;;1.02;;
22332;SDS011;11334;36.986;-121.936;2023-06-14T03:09:37;2.53;;;0.90;;
22332;SDS011;11334;36.986;-121.936;2023-06-14T03:12:04;3.58;;;0.68;;
22332;SDS011;11334;36.986;-121.936;2023-06-14T03:14:35;2.60;;;1.23;;
22332;SDS011;11334;36.986;-121.936;2023-06-14T03:17:02;2.28;;;1.13;;
22332;SDS011;11334;36.986;-121.936;2023-06-14T03:19:30;1.33;;;1.10;;
22332;SDS011;11334;36.986;-121.936;2023-06-14T03:21:56;1.67;;;1.55;;
22332;SDS011;11334;36.986;-121.936;2023-06-14T03:24:23;2.25;;;1.00;;
22332;SDS011;11334;36.986;-121.936;2023-06-14T03:26:52;3.88;;;1.17;;
22332;SDS011;11334;36.986;-121.936;2023-06-14T03:29:19;2.28;;;1.00;;
22332;SDS011;11334;36.986;-121.936;2023-06-14T03:32:01;3.42;;;1.27;;
22332;SDS011;11334;36.986;-121.936;2023-06-14T03:34:28;3.70;;;1.35;;
22332;SDS011;11334;36.986;-121.936;2023-06-14T03:36:54;1.20;;;1.10;;
22332;SDS011;11334;36.986;-121.936;2023-06-14T03:39:21;2.00;;;1.20;;
22332;SDS011;11334;36.986;-121.936;2023-06-14T03:41:47;1.55;;;1.38;;
22332;SDS011;11334;36.986;-121.936;2023-06-14T03:44:17;1.00;;;0.98;;
22332;SDS011;11334;36.986;-121.936;2023-06-14T03:46:44;1.80;;;0.88;;
22332;SDS011;11334;36.986;-121.936;2023-06-14T03:49:11;2.33;;;0.98;;
22332;SDS011;11334;36.986;-121.936;2023-06-14T03:51:38;1.60;;;1.13;;
22332;SDS011;11334;36.986;-121.936;2023-06-14T03:54:05;2.45;;;1.45;;
22332;SDS011;11334;36.986;-121.936;2023-06-14T03:56:32;1.45;;;1.08;;
22332;SDS011;11334;36.986;-121.936;2023-06-14T03:58:58;1.67;;;1.25;;
22332;SDS011;11334;36.986;-121.936;2023-06-14T04:01:24;2.60;;;1.08;;
22332;SDS011;11334;36.986;-121.936;2023-06-14T04:03:57;1.65;;;1.15;;
22332;SDS011;11334;36.986;-121.936;2023-06-14T04:06:23;1.98;;;1.45;;
22332;SDS011;11334;36.986;-121.936;2023-06-14T04:08:58;1.42;;;1.30;;
22332;SDS011;11334;36.986;-121.936;2023-06-14T04:11:29;2.10;;;1.17;;
22332;SDS011;11334;36.986;-121.936;2023-06-14T04:13:56;2.53;;;1.58;;
22332;SDS011;11334;36.986;-121.936;2023-06-14T04:16:23;2.35;;;1.20;;
22332;SDS011;11334;36.986;-121.936;2023-06-14T04:18:49;4.40;;;1.55;;
22332;SDS011;11334;36.986;-121.936;2023-06-14T04:21:17;1.83;;;1.27;;
22332;SDS011;11334;36.986;-121.936;2023-06-14T04:23:44;2.35;;;1.10;;
22332;SDS011;11334;36.986;-121.936;2023-06-14T04:26:10;3.83;;;1.52;;
22332;SDS011;11334;36.986;-121.936;2023-06-14T04:28:36;2.40;;;1.20;;
22332;SDS011;11334;36.986;-121.936;2023-06-14T04:31:09;3.33;;;1.70;;
22332;SDS011;11334;36.986;-121.936;2023-06-14T04:33:36;4.15;;;1.65;;
22332;SDS011;11334;36.986;-121.936;2023-06-14T04:36:10;2.63;;;2.10;;
22332;SDS011;11334;36.986;-121.936;2023-06-14T04:38:43;2.10;;;1.88;;
22332;SDS011;11334;36.986;-121.936;2023-06-14T04:41:10;2.85;;;1.85;;
22332;SDS011;11334;36.986;-121.936;2023-06-14T04:43:37;2.00;;;1.80;;
22332;SDS011;11334;36.986;-121.936;2023-06-14T04:46:04;2.60;;;1.85;;
22332;SDS011;11334;36.986;-121.936;2023-06-14T04:48:39;2.30;;;1.40;;
22332;SDS011;11334;36.986;-121.936;2023-06-14T04:51:08;2.97;;;1.27;;
22332;SDS011;11334;36.986;-121.936;2023-06-14T04:53:35;3.65;;;1.40;;
22332;SDS011;11334;36.986;-121.936;2023-06-14T04:56:01;1.67;;;1.15;;
22332;SDS011;11334;36.986;-121.936;2023-06-14T04:58:28;2.05;;;1.10;;
22332;SDS011;11334;36.986;-121.936;2023-06-14T05:00:55;3.95;;;1.45;;
22332;SDS011;11334;36.986;-121.936;2023-06-14T05:03:22;2.05;;;1.33;;
22332;SDS011;11334;36.986;-121.936;2023-06-14T05:05:49;3.28;;;1.30;;
22332;SDS011;11334;36.986;-121.936;2023-06-14T05:08:16;4.15;;;1.02;;
22332;SDS011;11334;36.986;-121.936;2023-06-14T05:10:42;1.08;;;0.88;;
22332;SDS011;11334;36.986;-121.936;2023-06-14T05:13:08;2.28;;;1.20;;
22332;SDS011;11334;36.986;-121.936;2023-06-14T05:15:35;1.38;;;1.20;;
22332;SDS011;11334;36.986;-121.936;2023-06-14T05:18:02;1.85;;;1.20;;
22332;SDS011;11334;36.986;-121.936;2023-06-14T05:20:28;1.75;;;0.88;;
22332;SDS011;11334;36.986;-121.936;2023-06-14T05:22:54;1.30;;;0.93;;
22332;SDS011;11334;36.986;-121.936;2023-06-14T05:25:22;1.45;;;1.10;;
22332;SDS011;11334;36.986;-121.936;2023-06-14T05:27:48;1.48;;;1.08;;
22332;SDS011;11334;36.986;-121.936;2023-06-14T05:30:15;1.20;;;1.05;;
22332;SDS011;11334;36.986;-121.936;2023-06-14T05:32:41;1.48;;;1.10;;
22332;SDS011;11334;36.986;-121.936;2023-06-14T05:35:08;2.10;;;0.82;;
22332;SDS011;11334;36.986;-121.936;2023-06-14T05:37:35;2.78;;;1.00;;
22332;SDS011;11334;36.986;-121.936;2023-06-14T05:40:01;3.72;;;1.55;;
22332;SDS011;11334;36.986;-121.936;2023-06-14T05:42:30;1.42;;;1.10;;
22332;SDS011;11334;36.986;-121.936;2023-06-14T05:44:57;1.02;;;0.90;;
22332;SDS011;11334;36.986;-121.936;2023-06-14T05:47:23;1.40;;;1.10;;
22332;SDS011;11334;36.986;-121.936;2023-06-14T05:49:51;1.52;;;1.00;;
22332;SDS011;11334;36.986;-121.936;2023-06-14T05:52:17;1.00;;;0.90;;
22332;SDS011;11334;36.986;-121.936;2023-06-14T05:54:43;1.30;;;1.20;;
22332;SDS011;11334;36.986;-121.936;2023-06-14T05:57:10;1.30;;;1.20;;
22332;SDS011;11334;36.986;-121.936;2023-06-14T05:59:37;1.67;;;1.10;;
22332;SDS011;11334;36.986;-121.936;2023-06-14T06:02:03;3.33;;;1.17;;
22332;SDS011;11334;36.986;-121.936;2023-06-14T06:04:30;3.75;;;1.10;;
22332;SDS011;11334;36.986;-121.936;2023-06-14T06:06:56;1.95;;;0.93;;
22332;SDS011;11334;36.986;-121.936;2023-06-14T06:09:22;1.10;;;1.00;;
22332;SDS011;11334;36.986;-121.936;2023-06-14T06:11:49;0.93;;;0.90;;
22332;SDS011;11334;36.986;-121.936;2023-06-14T06:14:15;1.17;;;1.00;;
22332;SDS011;11334;36.986;-121.936;2023-06-14T06:16:41;1.15;;;1.10;;
22332;SDS011;11334;36.986;-121.936;2023-06-14T06:19:08;1.63;;;1.20;;
22332;SDS011;11334;36.986;-121.936;2023-06-14T06:21:34;1.58;;;0.93;;
22332;SDS011;11334;36.986;-121.936;2023-06-14T06:24:00;1.27;;;1.10;;
22332;SDS011;11334;36.986;-121.936;2023-06-14T06:26:28;1.63;;;1.17;;
22332;SDS011;11334;36.986;-121.936;2023-06-14T06:28:55;1.15;;;1.08;;
22332;SDS011;11334;36.986;-121.936;2023-06-14T06:31:22;0.90;;;0.90;;
22332;SDS011;11334;36.986;-121.936;2023-06-14T06:33:49;1.63;;;1.10;;
22332;SDS011;11334;36.986;-121.936;2023-06-14T06:36:15;1.38;;;1.00;;
22332;SDS011;11334;36.986;-121.936;2023-06-14T06:38:41;0.93;;;0.90;;
22332;SDS011;11334;36.986;-121.936;2023-06-14T06:41:08;1.08;;;0.75;;
22332;SDS011;11334;36.986;-121.936;2023-06-14T06:43:34;1.10;;;1.10;;
22332;SDS011;11334;36.986;-121.936;2023-06-14T06:46:00;2.72;;;1.00;;
22332;SDS011;11334;36.986;-121.936;2023-06-14T06:48:27;0.95;;;0.95;;
22332;SDS011;11334;36.986;-121.936;2023-06-14T06:50:53;1.98;;;1.08;;
22332;SDS011;11334;36.986;-121.936;2023-06-14T06:53:20;1.15;;;1.05;;
22332;SDS011;11334;36.986;-121.936;2023-06-14T06:55:46;1.05;;;1.00;;
22332;SDS011;11334;36.986;-121.936;2023-06-14T06:58:13;0.93;;;0.93;;
22332;SDS011;11334;36.986;-121.936;2023-06-14T07:00:39;1.13;;;1.02;;
22332;SDS011;11334;36.986;-121.936;2023-06-14T07:03:06;2.58;;;1.55;;
22332;SDS011;11334;36.986;-121.936;2023-06-14T07:05:32;1.30;;;1.20;;
22332;SDS011;11334;36.986;-121.936;2023-06-14T07:07:58;1.48;;;1.20;;
22332;SDS011;11334;36.986;-121.936;2023-06-14T07:10:25;1.17;;;1.08;;
22332;SDS011;11334;36.986;-121.936;2023-06-14T07:12:51;1.77;;;1.55;;
22332;SDS011;11334;36.986;-121.936;2023-06-14T07:15:18;1.63;;;1.30;;
22332;SDS011;11334;36.986;-121.936;2023-06-14T07:17:44;0.90;;;0.73;;
22332;SDS011;11334;36.986;-121.936;2023-06-14T07:20:10;1.00;;;0.90;;
22332;SDS011;11334;36.986;-121.936;2023-06-14T07:22:39;1.08;;;1.08;;
22332;SDS011;11334;36.986;-121.936;2023-06-14T07:25:07;2.08;;;1.13;;
22332;SDS011;11334;36.986;-121.936;2023-06-14T07:27:40;2.72;;;1.30;;
22332;SDS011;11334;36.986;-121.936;2023-06-14T07:30:07;1.33;;;1.23;;
22332;SDS011;11334;36.986;-121.936;2023-06-14T07:32:34;1.42;;;0.93;;
22332;SDS011;11334;36.986;-121.936;2023-06-14T07:35:01;1.15;;;1.10;;
22332;SDS011;11334;36.986;-121.936;2023-06-14T07:37:28;3.20;;;1.17;;
22332;SDS011;11334;36.986;-121.936;2023-06-14T07:39:54;1.40;;;1.13;;
22332;SDS011;11334;36.986;-121.936;2023-06-14T07:42:21;1.60;;;1.50;;
22332;SDS011;11334;36.986;-121.936;2023-06-14T07:44:47;2.33;;;1.42;;
22332;SDS011;11334;36.986;-121.936;2023-06-14T07:47:13;1.38;;;1.27;;
22332;SDS011;11334;36.986;-121.936;2023-06-14T07:49:39;3.17;;;1.45;;
22332;SDS011;11334;36.986;-121.936;2023-06-14T07:52:06;2.35;;;1.33;;
22332;SDS011;11334;36.986;-121.936;2023-06-14T07:54:32;2.00;;;1.30;;
22332;SDS011;11334;36.986;-121.936;2023-06-14T07:56:59;2.00;;;1.40;;
22332;SDS011;11334;36.986;-121.936;2023-06-14T07:59:26;2.60;;;1.38;;
22332;SDS011;11334;36.986;-121.936;2023-06-14T08:01:52;2.83;;;1.30;;
22332;SDS011;11334;36.986;-121.936;2023-06-14T08:04:18;1.33;;;1.23;;
22332;SDS011;11334;36.986;-121.936;2023-06-14T08:06:45;2.75;;;1.15;;
22332;SDS011;11334;36.986;-121.936;2023-06-14T08:09:12;1.50;;;1.40;;
22332;SDS011;11334;36.986;-121.936;2023-06-14T08:11:38;1.23;;;1.20;;
22332;SDS011;11334;36.986;-121.936;2023-06-14T08:14:04;2.20;;;1.58;;
22332;SDS011;11334;36.986;-121.936;2023-06-14T08:16:31;1.38;;;1.27;;
22332;SDS011;11334;36.986;-121.936;2023-06-14T08:18:57;1.17;;;1.08;;
22332;SDS011;11334;36.986;-121.936;2023-06-14T08:21:23;1.40;;;1.25;;
22332;SDS011;11334;36.986;-121.936;2023-06-14T08:23:54;1.55;;;1.40;;
22332;SDS011;11334;36.986;-121.936;2023-06-14T08:26:21;1.67;;;1.30;;
22332;SDS011;11334;36.986;-121.936;2023-06-14T08:28:47;1.85;;;1.40;;
22332;SDS011;11334;36.986;-121.936;2023-06-14T08:31:13;1.48;;;1.30;;
22332;SDS011;11334;36.986;-121.936;2023-06-14T08:33:40;1.15;;;1.10;;
22332;SDS011;11334;36.986;-121.936;2023-06-14T08:36:08;2.15;;;1.35;;
22332;SDS011;11334;36.986;-121.936;2023-06-14T08:38:36;2.08;;;1.52;;
22332;SDS011;11334;36.986;-121.936;2023-06-14T08:41:03;1.20;;;1.20;;
22332;SDS011;11334;36.986;-121.936;2023-06-14T08:43:33;1.20;;;1.10;;
22332;SDS011;11334;36.986;-121.936;2023-06-14T08:46:00;1.23;;;1.08;;
22332;SDS011;11334;36.986;-121.936;2023-06-14T08:48:29;1.20;;;1.00;;
22332;SDS011;11334;36.986;-121.936;2023-06-14T08:51:01;0.90;;;0.90;;
22332;SDS011;11334;36.986;-121.936;2023-06-14T08:53:32;1.42;;;1.33;;
22332;SDS011;11334;36.986;-121.936;2023-06-14T08:56:02;1.63;;;1.30;;
22332;SDS011;11334;36.986;-121.936;2023-06-14T08:58:33;0.98;;;0.90;;
22332;SDS011;11334;36.986;-121.936;2023-06-14T09:01:01;2.00;;;1.30;;
22332;SDS011;11334;36.986;-121.936;2023-06-14T09:03:27;1.55;;;1.45;;
22332;SDS011;11334;36.986;-121.936;2023-06-14T09:05:58;2.22;;;1.23;;
22332;SDS011;11334;36.986;-121.936;2023-06-14T09:08:27;0.80;;;0.80;;
22332;SDS011;11334;36.986;-121.936;2023-06-14T09:10:56;1.48;;;1.10;;
22332;SDS011;11334;36.986;-121.936;2023-06-14T09:13:22;1.33;;;1.23;;
22332;SDS011;11334;36.986;-121.936;2023-06-14T09:15:49;1.08;;;1.00;;
22332;SDS011;11334;36.986;-121.936;2023-06-14T09:18:16;1.42;;;1.20;;
22332;SDS011;11334;36.986;-121.936;2023-06-14T09:20:42;1.58;;;1.20;;
22332;SDS011;11334;36.986;-121.936;2023-06-14T09:23:09;1.55;;;1.02;;
22332;SDS011;11334;36.986;-121.936;2023-06-14T09:25:45;2.47;;;1.63;;
22332;SDS011;11334;36.986;-121.936;2023-06-14T09:28:12;1.33;;;1.25;;
22332;SDS011;11334;36.986;-121.936;2023-06-14T09:30:38;1.52;;;1.20;;
22332;SDS011;11334;36.986;-121.936;2023-06-14T09:33:04;1.30;;;1.20;;
22332;SDS011;11334;36.986;-121.936;2023-06-14T09:35:31;1.17;;;1.10;;
22332;SDS011;11334;36.986;-121.936;2023-06-14T09:37:58;2.50;;;1.40;;
22332;SDS011;11334;36.986;-121.936;2023-06-14T09:40:24;1.88;;;1.58;;
22332;SDS011;11334;36.986;-121.936;2023-06-14T09:42:52;1.40;;;1.30;;
22332;SDS011;11334;36.986;-121.936;2023-06-14T09:45:20;2.80;;;1.23;;
22332;SDS011;11334;36.986;-121.936;2023-06-14T09:47:48;1.75;;;1.65;;
22332;SDS011;11334;36.986;-121.936;2023-06-14T09:50:16;3.03;;;1.50;;
22332;SDS011;11334;36.986;-121.936;2023-06-14T09:52:45;2.20;;;1.55;;
22332;SDS011;11334;36.986;-121.936;2023-06-14T09:55:16;3.67;;;1.70;;
22332;SDS011;11334;36.986;-121.936;2023-06-14T09:57:45;2.65;;;1.40;;
22332;SDS011;11334;36.986;-121.936;2023-06-14T10:00:13;2.25;;;1.50;;
22332;SDS011;11334;36.986;-121.936;2023-06-14T10:02:41;2.75;;;1.63;;
22332;SDS011;11334;36.986;-121.936;2023-06-14T10:05:15;2.10;;;1.50;;
22332;SDS011;11334;36.986;-121.936;2023-06-14T10:07:52;2.28;;;1.33;;
22332;SDS011;11334;36.986;-121.936;2023-06-14T10:10:21;2.17;;;1.60;;
22332;SDS011;11334;36.986;-121.936;2023-06-14T10:12:47;2.55;;;1.60;;
22332;SDS011;11334;36.986;-121.936;2023-06-14T10:15:17;1.70;;;1.60;;
22332;SDS011;11334;36.986;-121.936;2023-06-14T10:17:57;1.70;;;1.58;;
22332;SDS011;11334;36.986;-121.936;2023-06-14T10:20:30;4.00;;;1.67;;
22332;SDS011;11334;36.986;-121.936;2023-06-14T10:23:11;2.53;;;1.95;;
22332;SDS011;11334;36.986;-121.936;2023-06-14T10:25:43;2.08;;;1.95;;
22332;SDS011;11334;36.986;-121.936;2023-06-14T10:31:03;2.03;;;1.83;;
22332;SDS011;11334;36.986;-121.936;2023-06-14T10:33:32;5.75;;;1.85;;
22332;SDS011;11334;36.986;-121.936;2023-06-14T10:36:09;2.95;;;1.83;;
22332;SDS011;11334;36.986;-121.936;2023-06-14T10:41:50;2.38;;;1.88;;
22332;SDS011;11334;36.986;-121.936;2023-06-14T10:46:46;1.50;;;1.40;;
22332;SDS011;11334;36.986;-121.936;2023-06-14T10:49:16;1.35;;;1.20;;
22332;SDS011;11334;36.986;-121.936;2023-06-14T10:51:46;4.63;;;2.00;;
22332;SDS011;11334;36.986;-121.936;2023-06-14T10:54:17;2.42;;;1.80;;
22332;SDS011;11334;36.986;-121.936;2023-06-14T10:56:46;1.67;;;1.50;;
22332;SDS011;11334;36.986;-121.936;2023-06-14T10:59:14;1.10;;;1.00;;
22332;SDS011;11334;36.986;-121.936;2023-06-14T11:04:47;1.38;;;1.27;;
22332;SDS011;11334;36.986;-121.936;2023-06-14T11:10:20;3.00;;;1.50;;
22332;SDS011;11334;36.986;-121.936;2023-06-14T11:12:54;1.40;;;1.30;;
22332;SDS011;11334;36.986;-121.936;2023-06-14T11:15:27;1.23;;;1.13;;
22332;SDS011;11334;36.986;-121.936;2023-06-14T11:17:57;1.10;;;1.00;;
22332;SDS011;11334;36.986;-121.936;2023-06-14T11:20:26;1.33;;;1.25;;
22332;SDS011;11334;36.986;-121.936;2023-06-14T11:22:56;0.80;;;0.80;;
22332;SDS011;11334;36.986;-121.936;2023-06-14T11:25:23;1.23;;;1.13;;
22332;SDS011;11334;36.986;-121.936;2023-06-14T11:27:50;1.10;;;1.00;;
22332;SDS011;11334;36.986;-121.936;2023-06-14T11:30:16;1.00;;;1.00;;
22332;SDS011;11334;36.986;-121.936;2023-06-14T11:32:45;4.38;;;1.30;;
22332;SDS011;11334;36.986;-121.936;2023-06-14T11:35:13;0.90;;;0.90;;
22332;SDS011;11334;36.986;-121.936;2023-06-14T11:37:39;1.25;;;1.15;;
22332;SDS011;11334;36.986;-121.936;2023-06-14T11:40:07;0.95;;;0.90;;
22332;SDS011;11334;36.986;-121.936;2023-06-14T11:42:35;1.15;;;1.00;;
22332;SDS011;11334;36.986;-121.936;2023-06-14T11:45:02;2.67;;;1.00;;
22332;SDS011;11334;36.986;-121.936;2023-06-14T11:47:37;2.65;;;1.08;;
22332;SDS011;11334;36.986;-121.936;2023-06-14T11:50:05;1.80;;;1.25;;
22332;SDS011;11334;36.986;-121.936;2023-06-14T11:52:36;2.45;;;0.90;;
22332;SDS011;11334;36.986;-121.936;2023-06-14T11:55:03;1.30;;;1.20;;
22332;SDS011;11334;36.986;-121.936;2023-06-14T11:57:32;0.93;;;0.93;;
22332;SDS011;11334;36.986;-121.936;2023-06-14T12:00:02;1.10;;;1.00;;
22332;SDS011;11334;36.986;-121.936;2023-06-14T12:02:40;1.70;;;1.20;;
22332;SDS011;11334;36.986;-121.936;2023-06-14T12:05:07;1.70;;;1.10;;
22332;SDS011;11334;36.986;-121.936;2023-06-14T12:07:37;0.98;;;0.85;;
22332;SDS011;11334;36.986;-121.936;2023-06-14T12:10:05;1.05;;;0.95;;
22332;SDS011;11334;36.986;-121.936;2023-06-14T12:12:37;2.03;;;0.80;;
22332;SDS011;11334;36.986;-121.936;2023-06-14T12:15:05;2.75;;;0.90;;
22332;SDS011;11334;36.986;-121.936;2023-06-14T12:17:36;2.72;;;1.00;;
22332;SDS011;11334;36.986;-121.936;2023-06-14T12:20:11;2.10;;;1.15;;
22332;SDS011;11334;36.986;-121.936;2023-06-14T12:22:59;1.38;;;1.00;;
22332;SDS011;11334;36.986;-121.936;2023-06-14T12:25:32;2.88;;;1.10;;
22332;SDS011;11334;36.986;-121.936;2023-06-14T12:28:07;1.33;;;1.23;;
22332;SDS011;11334;36.986;-121.936;2023-06-14T12:30:35;2.22;;;1.30;;
22332;SDS011;11334;36.986;-121.936;2023-06-14T12:33:02;1.27;;;1.10;;
22332;SDS011;11334;36.986;-121.936;2023-06-14T12:35:29;1.75;;;1.50;;
22332;SDS011;11334;36.986;-121.936;2023-06-14T12:37:55;2.22;;;1.80;;
22332;SDS011;11334;36.986;-121.936;2023-06-14T12:40:22;2.25;;;1.30;;
22332;SDS011;11334;36.986;-121.936;2023-06-14T12:42:48;2.72;;;1.58;;
22332;SDS011;11334;36.986;-121.936;2023-06-14T12:45:15;3.83;;;1.75;;
22332;SDS011;11334;36.986;-121.936;2023-06-14T12:47:41;1.63;;;1.50;;
22332;SDS011;11334;36.986;-121.936;2023-06-14T12:50:07;2.92;;;1.52;;
22332;SDS011;11334;36.986;-121.936;2023-06-14T12:52:34;2.75;;;1.70;;
22332;SDS011;11334;36.986;-121.936;2023-06-14T12:55:06;2.00;;;1.58;;
22332;SDS011;11334;36.986;-121.936;2023-06-14T12:57:33;3.33;;;1.70;;
22332;SDS011;11334;36.986;-121.936;2023-06-14T13:00:02;1.90;;;1.65;;
22332;SDS011;11334;36.986;-121.936;2023-06-14T13:02:28;3.80;;;1.42;;
22332;SDS011;11334;36.986;-121.936;2023-06-14T13:04:54;3.05;;;1.85;;
22332;SDS011;11334;36.986;-121.936;2023-06-14T13:07:23;2.28;;;1.38;;
22332;SDS011;11334;36.986;-121.936;2023-06-14T13:09:50;2.88;;;1.75;;
22332;SDS011;11334;36.986;-121.936;2023-06-14T13:12:18;2.35;;;1.15;;
22332;SDS011;11334;36.986;-121.936;2023-06-14T13:14:45;2.85;;;1.58;;
22332;SDS011;11334;36.986;-121.936;2023-06-14T13:17:11;4.10;;;1.50;;
22332;SDS011;11334;36.986;-121.936;2023-06-14T13:19:37;2.20;;;1.40;;
22332;SDS011;11334;36.986;-121.936;2023-06-14T13:22:03;2.95;;;1.75;;
22332;SDS011;11334;36.986;-121.936;2023-06-14T13:24:30;3.03;;;1.23;;
22332;SDS011;11334;36.986;-121.936;2023-06-14T13:26:56;1.33;;;1.23;;
22332;SDS011;11334;36.986;-121.936;2023-06-14T13:29:24;2.42;;;1.45;;
22332;SDS011;11334;36.986;-121.936;2023-06-14T13:31:50;1.55;;;1.40;;
22332;SDS011;11334;36.986;-121.936;2023-06-14T13:34:16;3.33;;;1.58;;
22332;SDS011;11334;36.986;-121.936;2023-06-14T13:36:43;2.67;;;1.38;;
22332;SDS011;11334;36.986;-121.936;2023-06-14T13:39:09;2.70;;;1.30;;
22332;SDS011;11334;36.986;-121.936;2023-06-14T13:41:36;1.38;;;1.10;;
22332;SDS011;11334;36.986;-121.936;2023-06-14T13:44:02;2.58;;;1.60;;
22332;SDS011;11334;36.986;-121.936;2023-06-14T13:46:29;2.67;;;1.40;;
22332;SDS011;11334;36.986;-121.936;2023-06-14T13:48:56;3.95;;;1.38;;
22332;SDS011;11334;36.986;-121.936;2023-06-14T13:51:23;1.20;;;1.10;;
22332;SDS011;11334;36.986;-121.936;2023-06-14T13:53:52;4.85;;;1.48;;
22332;SDS011;11334;36.986;-121.936;2023-06-14T13:56:20;1.38;;;1.15;;
22332;SDS011;11334;36.986;-121.936;2023-06-14T13:58:48;1.83;;;1.10;;
22332;SDS011;11334;36.986;-121.936;2023-06-14T14:01:14;1.63;;;1.10;;
22332;SDS011;11334;36.986;-121.936;2023-06-14T14:03:40;2.22;;;1.48;;
22332;SDS011;11334;36.986;-121.936;2023-06-14T14:06:06;3.38;;;2.03;;
22332;SDS011;11334;36.986;-121.936;2023-06-14T14:08:32;4.72;;;1.48;;
22332;SDS011;11334;36.986;-121.936;2023-06-14T14:10:59;1.63;;;1.30;;
22332;SDS011;11334;36.986;-121.936;2023-06-14T14:13:26;2.47;;;1.45;;
22332;SDS011;11334;36.986;-121.936;2023-06-14T14:15:52;1.95;;;1.05;;
22332;SDS011;11334;36.986;-121.936;2023-06-14T14:18:19;2.55;;;1.17;;
22332;SDS011;11334;36.986;-121.936;2023-06-14T14:20:48;1.55;;;1.17;;
22332;SDS011;11334;36.986;-121.936;2023-06-14T14:23:14;3.00;;;1.55;;
22332;SDS011;11334;36.986;-121.936;2023-06-14T14:25:40;2.13;;;1.20;;
22332;SDS011;11334;36.986;-121.936;2023-06-14T14:28:07;1.63;;;1.50;;
22332;SDS011;11334;36.986;-121.936;2023-06-14T14:30:33;1.17;;;0.93;;